Time;durP1;ratioP1;P1;durP2;ratioP2;P2;SDS_P1;SDS_P2;PMS_P1;PMS_P2;Temp;Humidity;BMP_temperature;BMP_pressure;BME280_temperature;BME280_humidity;BME280_pressure;Samples;Min_cycle;Max_cycle;Signal;HPM_P1;HPM_P2
2021/05/27 00:00:47;;;;;;;7.32;1.67;;;;;;;23.42;41.27;99654.22;4482606;32;34588;-60
2021/05/27 00:03:15;;;;;;;6.70;1.85;;;;;;;23.40;41.29;99659.88;4484070;32;34901;-60
2021/05/27 00:05:42;;;;;;;12.18;2.05;;;;;;;23.40;41.31;99653.62;4484341;32;34847;-60
2021/05/27 00:08:10;;;;;;;5.93;1.67;;;;;;;23.40;41.28;99645.44;4483266;32;34117;-60
2021/05/27 00:10:38;;;;;;;15.32;2.35;;;;;;;23.40;41.23;99653.62;4477617;32;34060;-61
2021/05/27 00:13:05;;;;;;;8.10;1.65;;;;;;;23.40;41.19;99648.16;4484220;32;33546;-61
2021/05/27 00:15:40;;;;;;;8.93;2.17;;;;;;;23.40;41.23;99642.72;4484118;32;33679;-60
2021/05/27 00:18:07;;;;;;;7.05;1.80;;;;;;;23.38;41.24;99648.41;4484227;32;34152;-60
2021/05/27 00:20:35;;;;;;;6.85;1.77;;;;;;;23.39;41.23;99646.50;4484114;32;35146;-61
2021/05/27 00:23:03;;;;;;;7.62;2.35;;;;;;;23.37;41.24;99652.19;4484110;32;34566;-61
2021/05/27 00:25:31;;;;;;;4.78;1.35;;;;;;;23.38;41.21;99642.13;4484051;32;34690;-60
2021/05/27 00:27:58;;;;;;;6.95;1.70;;;;;;;23.38;41.22;99659.28;4483977;32;34544;-60
2021/05/27 00:30:26;;;;;;;6.00;2.17;;;;;;;23.38;41.22;99653.03;4483911;32;33554;-60
2021/05/27 00:32:54;;;;;;;5.93;1.92;;;;;;;23.37;41.25;99652.19;4484019;32;33855;-60
2021/05/27 00:35:21;;;;;;;7.00;1.77;;;;;;;23.39;41.24;99654.69;4484384;32;34008;-60
2021/05/27 00:37:49;;;;;;;6.30;1.90;;;;;;;23.39;41.27;99660.13;4483955;32;33380;-59
2021/05/27 00:40:17;;;;;;;7.22;2.00;;;;;;;23.38;41.34;99655.75;4484324;32;33835;-60
2021/05/27 00:42:45;;;;;;;9.52;2.17;;;;;;;23.37;41.43;99663.09;4483729;32;33889;-60
2021/05/27 00:45:15;;;;;;;8.35;2.20;;;;;;;23.38;41.60;99664.75;4483822;32;34579;-60
2021/05/27 00:47:43;;;;;;;6.07;1.90;;;;;;;23.38;41.41;99666.63;4483837;32;33632;-60
2021/05/27 00:50:20;;;;;;;7.95;1.85;;;;;;;23.38;41.35;99658.47;4484271;32;33796;-61
2021/05/27 00:52:52;;;;;;;6.22;1.60;;;;;;;23.37;41.35;99656.81;4483879;32;33714;-60
2021/05/27 00:55:22;;;;;;;4.90;1.70;;;;;;;23.37;41.41;99656.81;4484062;32;34087;-60
2021/05/27 00:57:50;;;;;;;8.63;2.17;;;;;;;23.37;41.43;99648.66;4483681;32;33231;-60
2021/05/27 01:00:19;;;;;;;6.60;1.45;;;;;;;23.38;41.41;99645.69;4483906;32;34638;-60
2021/05/27 01:02:47;;;;;;;6.90;1.90;;;;;;;23.37;41.60;99652.19;4483547;32;34884;-61
2021/05/27 01:05:15;;;;;;;5.28;1.90;;;;;;;23.38;41.66;99651.13;4483672;32;34884;-61
2021/05/27 01:07:45;;;;;;;11.68;2.28;;;;;;;23.37;41.69;99652.19;4484172;32;34215;-61
2021/05/27 01:10:13;;;;;;;4.97;1.20;;;;;;;23.37;41.69;99654.09;4483993;32;33637;-61
2021/05/27 01:12:41;;;;;;;6.47;1.30;;;;;;;23.38;41.69;99650.31;4483892;32;33733;-61
2021/05/27 01:15:29;;;;;;;10.93;2.05;;;;;;;23.37;41.71;99656.81;4482569;32;33863;-61
2021/05/27 01:18:07;;;;;;;6.37;1.90;;;;;;;23.37;41.72;99656.81;4483796;32;34533;-61
2021/05/27 01:20:34;;;;;;;7.00;1.50;;;;;;;23.35;41.68;99648.84;4484130;32;33498;-62
2021/05/27 01:23:02;;;;;;;9.18;1.92;;;;;;;23.37;41.55;99648.66;4483411;32;33572;-62
2021/05/27 01:25:31;;;;;;;9.02;1.60;;;;;;;23.37;41.65;99651.37;4482801;32;34194;-61
2021/05/27 01:27:58;;;;;;;5.32;1.50;;;;;;;23.37;41.60;99645.91;4483775;32;32769;-62
2021/05/27 01:30:26;;;;;;;4.90;1.60;;;;;;;23.38;41.70;99644.84;4483786;32;33749;-61
2021/05/27 01:32:54;;;;;;;10.13;1.75;;;;;;;23.37;41.56;99652.19;4483788;32;33915;-61
2021/05/27 01:35:22;;;;;;;5.12;1.52;;;;;;;23.38;41.50;99647.56;4483907;32;33862;-62
2021/05/27 01:37:50;;;;;;;7.43;1.77;;;;;;;23.38;41.60;99642.13;4483403;32;33526;-61
2021/05/27 01:40:20;;;;;;;7.80;1.98;;;;;;;23.37;41.68;99649.47;4483429;32;34718;-62
2021/05/27 01:42:48;;;;;;;8.57;1.55;;;;;;;23.37;41.85;99643.19;4483764;32;33892;-61
2021/05/27 01:45:17;;;;;;;4.15;1.70;;;;;;;23.38;41.88;99642.13;4483522;32;34752;-61
2021/05/27 01:47:45;;;;;;;5.72;1.55;;;;;;;23.38;41.84;99647.56;4483725;32;33606;-62
2021/05/27 01:50:20;;;;;;;6.65;1.70;;;;;;;23.36;41.79;99645.09;4483291;32;33102;-61
2021/05/27 01:52:49;;;;;;;8.85;2.08;;;;;;;23.36;41.79;99638.78;4484620;32;33789;-61
2021/05/27 01:55:17;;;;;;;5.55;1.50;;;;;;;23.38;41.81;99639.41;4488710;31;34872;-62
2021/05/27 01:57:45;;;;;;;5.55;2.10;;;;;;;23.37;41.77;99635.84;4488328;32;34286;-61
2021/05/27 02:00:13;;;;;;;8.43;1.75;;;;;;;23.36;41.80;99634.19;4488535;32;34696;-61
2021/05/27 02:02:41;;;;;;;7.85;2.08;;;;;;;23.37;41.78;99632.31;4488401;32;34587;-61
2021/05/27 02:05:10;;;;;;;8.43;1.62;;;;;;;23.36;41.82;99626.03;4488530;32;34620;-62
2021/05/27 02:07:38;;;;;;;9.55;1.60;;;;;;;23.37;41.90;99632.31;4488430;32;34383;-62
2021/05/27 02:10:07;;;;;;;3.67;1.00;;;;;;;23.37;41.89;99629.59;4488313;32;34572;-61
2021/05/27 02:13:00;;;;;;;5.87;1.50;;;;;;;23.97;40.92;99628.72;4523244;31;138037;-60
2021/05/27 02:15:30;;;;;;;15.32;1.80;;;;;;;23.97;40.92;99628.72;4511924;31;33976;-61
2021/05/27 02:17:59;;;;;;;8.73;1.60;;;;;;;23.39;41.89;99630.16;4511669;31;33752;-63
2021/05/27 02:20:27;;;;;;;9.73;1.80;;;;;;;23.37;41.93;99618.69;4511853;31;33943;-60
2021/05/27 02:22:55;;;;;;;14.43;1.60;;;;;;;23.36;41.83;99626.03;4511992;31;33723;-63
2021/05/27 02:25:25;;;;;;;8.35;1.48;;;;;;;23.35;41.96;99632.53;4512060;31;33973;-63
2021/05/27 02:27:55;;;;;;;7.18;1.60;;;;;;;23.36;41.95;99625.19;4512031;31;33801;-63
2021/05/27 02:30:24;;;;;;;9.57;1.70;;;;;;;23.35;41.95;99623.53;4511862;31;33947;-63
2021/05/27 02:32:52;;;;;;;7.20;1.52;;;;;;;23.35;41.86;99624.34;4511965;31;33283;-62
2021/05/27 02:35:20;;;;;;;8.25;2.22;;;;;;;23.35;41.86;99635.25;4511571;31;33240;-63
2021/05/27 02:37:47;;;;;;;5.18;1.60;;;;;;;23.34;41.91;99635.47;4511543;31;33750;-63
2021/05/27 02:40:18;;;;;;;6.15;1.70;;;;;;;23.34;41.83;99630.03;4511978;31;33847;-62
2021/05/27 02:42:46;;;;;;;9.18;1.58;;;;;;;23.34;41.81;99630.03;4510325;31;33851;-63
2021/05/27 02:45:16;;;;;;;5.82;1.85;;;;;;;23.34;41.86;99630.03;4511992;31;33275;-63
2021/05/27 02:47:44;;;;;;;8.48;1.73;;;;;;;23.34;41.80;99625.41;4511806;31;34408;-63
2021/05/27 02:50:12;;;;;;;5.82;1.50;;;;;;;23.34;41.83;99627.31;4511609;31;33794;-63
2021/05/27 02:52:40;;;;;;;8.00;1.67;;;;;;;23.34;41.83;99624.59;4511532;31;34603;-64
2021/05/27 02:55:09;;;;;;;8.50;1.73;;;;;;;23.33;41.93;99622.94;4507971;31;34839;-63
2021/05/27 02:57:37;;;;;;;5.47;1.45;;;;;;;23.33;41.90;99628.37;4495603;32;33778;-63
2021/05/27 03:00:07;;;;;;;6.53;1.35;;;;;;;23.33;41.85;99636.56;4495553;32;33781;-63
2021/05/27 03:02:36;;;;;;;4.95;1.45;;;;;;;23.34;41.79;99643.66;4495865;31;33370;-63
2021/05/27 03:05:05;;;;;;;4.85;1.50;;;;;;;23.33;41.82;99631.94;4494354;32;32938;-64
2021/05/27 03:07:34;;;;;;;8.85;1.48;;;;;;;23.32;41.89;99630.28;4495873;32;34020;-64
2021/05/27 03:10:03;;;;;;;7.00;1.73;;;;;;;23.34;41.86;99627.31;4495797;32;33841;-63
2021/05/27 03:12:32;;;;;;;6.62;1.37;;;;;;;23.33;41.96;99628.37;4495562;31;33745;-63
2021/05/27 03:15:00;;;;;;;5.65;1.33;;;;;;;23.33;41.94;99622.94;4495807;32;33082;-62
2021/05/27 03:17:29;;;;;;;4.80;1.52;;;;;;;23.32;41.97;99621.28;4493860;32;34774;-62
2021/05/27 03:19:57;;;;;;;6.00;1.42;;;;;;;23.33;41.87;99622.94;4494723;32;34716;-62
2021/05/27 03:22:25;;;;;;;3.78;1.42;;;;;;;23.32;41.89;99615.84;4493372;32;34262;-62
2021/05/27 03:24:52;;;;;;;5.43;1.20;;;;;;;23.31;41.97;99617.69;4480404;32;34091;-62
2021/05/27 03:27:22;;;;;;;8.55;1.40;;;;;;;23.31;42.09;99617.69;4469243;32;34391;-62
2021/05/27 03:29:50;;;;;;;3.75;1.42;;;;;;;23.32;42.01;99629.44;4469554;32;33903;-62
2021/05/27 03:32:18;;;;;;;5.87;1.52;;;;;;;23.31;42.06;99625.88;4469416;32;33352;-62
2021/05/27 03:34:47;;;;;;;4.87;1.48;;;;;;;23.30;41.88;99623.38;4469256;32;33270;-62
2021/05/27 03:37:14;;;;;;;6.68;1.73;;;;;;;23.33;41.86;99625.66;4472304;32;34813;-62
2021/05/27 03:40:11;;;;;;;5.03;1.48;;;;;;;23.31;41.96;99625.03;4485041;32;34783;-61
2021/05/27 03:42:33;;;;;;;7.35;1.25;;;;;;;23.30;42.05;99631.56;4484755;32;33707;-62
2021/05/27 03:45:05;;;;;;;7.87;1.23;;;;;;;23.31;42.06;99628.59;4485007;32;34548;-62
2021/05/27 03:47:39;;;;;;;9.07;1.62;;;;;;;23.30;42.06;99629.66;4485020;32;34737;-62
2021/05/27 03:50:08;;;;;;;6.35;2.22;;;;;;;23.32;42.09;99626.72;4484784;32;34051;-62
2021/05/27 03:52:37;;;;;;;9.40;1.65;;;;;;;23.30;42.20;99629.66;4484734;32;34135;-62
2021/05/27 03:55:06;;;;;;;4.47;1.70;;;;;;;23.32;42.23;99640.34;4484954;32;33357;-62
2021/05/27 03:57:34;;;;;;;6.50;1.40;;;;;;;23.31;42.26;99634.03;4484719;32;33631;-62
2021/05/27 04:02:53;;;;;;;9.48;1.33;;;;;;;23.31;42.27;99630.47;4485004;32;34232;-62
2021/05/27 04:08:07;;;;;;;13.73;1.58;;;;;;;23.30;42.23;99635.09;4484596;32;34424;-62
2021/05/27 04:10:35;;;;;;;6.45;1.40;;;;;;;23.33;42.18;99636.56;4484149;32;33857;-62
2021/05/27 04:13:03;;;;;;;8.63;1.75;;;;;;;23.31;42.13;99627.75;4484299;32;33223;-62
2021/05/27 04:15:35;;;;;;;5.82;1.52;;;;;;;23.30;42.35;99631.56;4484737;32;33233;-62
2021/05/27 04:18:11;;;;;;;8.85;2.12;;;;;;;23.31;42.37;99636.75;4484222;32;34958;-62
2021/05/27 04:20:46;;;;;;;7.28;1.65;;;;;;;23.31;42.35;99634.03;4484479;32;34846;-62
2021/05/27 04:23:16;;;;;;;6.70;1.60;;;;;;;23.29;42.34;99629.91;4484348;32;34581;-62
2021/05/27 04:25:43;;;;;;;6.28;1.75;;;;;;;23.29;42.34;99629.91;4483896;32;33101;-61
2021/05/27 04:28:11;;;;;;;8.52;2.00;;;;;;;23.29;42.24;99632.63;4483231;32;33569;-63
2021/05/27 04:33:26;;;;;;;7.03;1.23;;;;;;;23.28;42.17;99634.50;4482473;32;34310;-62
2021/05/27 04:35:53;;;;;;;5.78;1.37;;;;;;;23.27;42.16;99637.44;4474464;32;33479;-62
2021/05/27 04:38:21;;;;;;;6.12;1.80;;;;;;;23.27;42.15;99640.16;4484443;32;33884;-62
2021/05/27 04:40:49;;;;;;;3.12;0.98;;;;;;;23.27;42.12;99642.87;4484242;32;33952;-62
2021/05/27 04:43:17;;;;;;;10.02;1.87;;;;;;;23.27;42.08;99645.59;4484130;32;34537;-62
2021/05/27 04:45:44;;;;;;;6.20;1.73;;;;;;;23.27;41.71;99640.16;4484244;32;33174;-62
2021/05/27 04:48:13;;;;;;;28.48;2.92;;;;;;;23.30;37.75;99648.72;4483090;32;34580;-62
2021/05/27 04:50:41;;;;;;;18.08;2.35;;;;;;;23.20;35.99;99647.59;4484046;32;34908;-61
2021/05/27 04:53:09;;;;;;;18.62;2.12;;;;;;;23.14;36.97;99644.75;4483904;32;33675;-60
2021/05/27 04:55:37;;;;;;;10.57;2.47;;;;;;;23.12;37.84;99641.41;4484195;32;33392;-60
2021/05/27 04:58:05;;;;;;;11.27;2.28;;;;;;;23.11;38.29;99647.06;4484163;32;34350;-61
2021/05/27 05:00:32;;;;;;;11.85;2.42;;;;;;;23.11;38.54;99647.06;4484472;32;33598;-61
2021/05/27 05:03:00;;;;;;;14.00;2.25;;;;;;;23.09;38.90;99639.16;4483557;32;33685;-61
2021/05/27 05:05:28;;;;;;;13.93;2.10;;;;;;;23.08;38.58;99648.38;4483612;32;33493;-62
2021/05/27 05:07:56;;;;;;;22.87;2.25;;;;;;;23.08;38.61;99647.53;4480809;32;33772;-61
2021/05/27 05:10:25;;;;;;;11.35;2.08;;;;;;;23.09;38.72;99651.94;4482541;32;34741;-61
2021/05/27 05:12:52;;;;;;;13.75;2.40;;;;;;;23.09;38.85;99643.75;4483620;32;33624;-62
2021/05/27 05:15:22;;;;;;;10.45;2.08;;;;;;;23.07;38.87;99646.69;4483721;32;34149;-61
2021/05/27 05:18:06;;;;;;;13.70;2.20;;;;;;;23.08;38.97;99651.09;4477588;32;33627;-62
2021/05/27 05:20:38;;;;;;;15.68;2.25;;;;;;;23.11;39.03;99650.63;4483240;32;34666;-62
2021/05/27 05:23:06;;;;;;;8.65;2.05;;;;;;;23.10;39.09;99640.81;4483476;32;33618;-62
2021/05/27 05:25:35;;;;;;;6.70;2.20;;;;;;;23.09;39.15;99641.88;4483729;32;33246;-63
2021/05/27 05:28:03;;;;;;;10.45;2.22;;;;;;;23.10;39.21;99643.53;4484326;32;33734;-62
2021/05/27 05:30:31;;;;;;;7.90;1.87;;;;;;;23.11;39.27;99653.34;4483612;32;33776;-64
2021/05/27 05:32:59;;;;;;;9.15;1.80;;;;;;;23.12;39.30;99651.47;4484053;32;34443;-62
2021/05/27 05:35:27;;;;;;;7.70;1.80;;;;;;;23.11;39.38;99656.06;4484008;32;33365;-63
2021/05/27 05:37:55;;;;;;;12.37;1.73;;;;;;;23.12;39.39;99651.47;4481988;32;35114;-61
2021/05/27 05:40:24;;;;;;;6.93;1.67;;;;;;;23.13;39.39;99650.41;4482527;32;33926;-60
2021/05/27 05:42:52;;;;;;;11.15;2.00;;;;;;;23.13;39.43;99642.25;4483729;32;33609;-62
2021/05/27 05:45:20;;;;;;;11.57;1.98;;;;;;;23.13;39.43;99658.59;4483493;32;33935;-62
2021/05/27 05:47:48;;;;;;;8.68;2.25;;;;;;;23.13;39.46;99659.41;4483972;32;33768;-62
2021/05/27 05:50:44;;;;;;;10.77;1.83;;;;;;;23.13;39.54;99659.41;4483676;32;33611;-60
2021/05/27 05:53:04;;;;;;;9.18;1.60;;;;;;;23.13;39.58;99658.59;4482670;32;35063;-60
2021/05/27 05:55:32;;;;;;;6.40;1.60;;;;;;;23.13;39.60;99653.97;4470712;32;33362;-61
2021/05/27 05:57:59;;;;;;;11.20;2.00;;;;;;;23.14;39.60;99663.78;4467919;32;33829;-62
2021/05/27 06:00:28;;;;;;;6.87;1.75;;;;;;;23.14;39.63;99662.97;4468127;32;33809;-61
2021/05/27 06:02:55;;;;;;;9.25;2.40;;;;;;;23.13;39.68;99666.75;4468268;32;33442;-61
2021/05/27 06:05:23;;;;;;;8.60;1.90;;;;;;;23.13;39.71;99659.41;4468104;32;33210;-61
2021/05/27 06:07:53;;;;;;;6.20;1.45;;;;;;;23.13;39.80;99662.12;4467812;32;33809;-61
2021/05/27 06:10:21;;;;;;;8.90;1.70;;;;;;;23.13;39.81;99670.28;4467929;32;33908;-61
2021/05/27 06:12:50;;;;;;;8.20;1.90;;;;;;;23.14;39.86;99668.41;4467559;32;33651;-61
2021/05/27 06:15:21;;;;;;;7.22;1.85;;;;;;;23.13;39.88;99667.56;4467784;32;33111;-61
2021/05/27 06:17:57;;;;;;;11.00;1.80;;;;;;;23.12;39.90;99663.16;4467601;32;34540;-61
2021/05/27 06:20:25;;;;;;;6.25;1.70;;;;;;;23.12;39.94;99665.06;4467847;32;34716;-59
2021/05/27 06:22:53;;;;;;;4.32;1.58;;;;;;;23.12;39.96;99665.06;4467709;32;33666;-61
2021/05/27 06:25:22;;;;;;;5.68;1.70;;;;;;;23.12;39.99;99665.87;4467712;32;33050;-60
2021/05/27 06:27:50;;;;;;;5.40;1.60;;;;;;;23.11;40.00;99663.41;4467638;32;33470;-61
2021/05/27 06:30:19;;;;;;;7.70;1.60;;;;;;;23.12;40.01;99662.34;4467824;32;34665;-62
2021/05/27 06:32:46;;;;;;;8.10;1.90;;;;;;;23.12;40.04;99665.06;4483085;32;33729;-61
2021/05/27 06:35:15;;;;;;;6.72;1.83;;;;;;;23.11;40.06;99653.34;4483220;32;34237;-60
2021/05/27 06:37:43;;;;;;;5.37;1.85;;;;;;;23.11;40.08;99652.53;4483095;32;34591;-61
2021/05/27 06:40:12;;;;;;;6.60;1.58;;;;;;;23.11;40.09;99649.78;4483056;32;33710;-62
2021/05/27 06:42:40;;;;;;;8.50;1.73;;;;;;;23.11;40.11;99653.34;4482341;32;33461;-62
2021/05/27 06:45:08;;;;;;;6.07;1.40;;;;;;;23.12;40.10;99648.72;4482433;32;33964;-62
2021/05/27 06:47:36;;;;;;;8.13;2.17;;;;;;;23.12;40.11;99662.34;4482611;32;34583;-62
2021/05/27 06:50:05;;;;;;;5.90;1.85;;;;;;;23.11;40.15;99657.97;4482661;32;33969;-62
2021/05/27 06:52:34;;;;;;;5.37;1.20;;;;;;;23.10;40.17;99659.84;4482869;32;33759;-62
2021/05/27 06:55:04;;;;;;;5.50;1.55;;;;;;;23.13;40.14;99664.03;4482752;31;33252;-63
2021/05/27 06:57:31;;;;;;;6.87;1.75;;;;;;;23.12;40.17;99657.72;4482909;32;33742;-64
2021/05/27 06:59:59;;;;;;;6.37;1.50;;;;;;;23.15;40.17;99664.63;4484861;32;33668;-64
2021/05/27 07:02:28;;;;;;;7.68;1.60;;;;;;;23.14;40.24;99669.22;4485016;32;33688;-63
2021/05/27 07:04:55;;;;;;;6.47;1.37;;;;;;;23.15;40.28;99668.16;4485036;32;33009;-62
2021/05/27 07:07:24;;;;;;;4.75;1.70;;;;;;;23.16;40.29;99663.56;4484543;32;34581;-63
2021/05/27 07:09:55;;;;;;;4.95;1.52;;;;;;;23.17;40.26;99663.34;4485013;32;34837;-62
2021/05/27 07:12:23;;;;;;;4.75;1.48;;;;;;;23.17;40.25;99666.06;4484876;32;33685;-63
2021/05/27 07:14:51;;;;;;;5.93;1.40;;;;;;;23.16;40.28;99661.66;4484806;32;34211;-63
2021/05/27 07:17:19;;;;;;;4.25;1.30;;;;;;;23.18;40.29;99669.62;4485042;32;33853;-64
2021/05/27 07:19:46;;;;;;;3.40;1.50;;;;;;;23.20;40.29;99669.38;4484908;32;33855;-62
2021/05/27 07:22:14;;;;;;;6.75;1.67;;;;;;;23.19;40.30;99670.44;4484750;32;33670;-64
2021/05/27 07:24:42;;;;;;;5.40;1.35;;;;;;;23.20;40.30;99662.03;4484937;32;33265;-63
2021/05/27 07:27:09;;;;;;;4.55;1.35;;;;;;;23.21;40.29;99658.25;4484593;32;34807;-63
2021/05/27 07:29:37;;;;;;;7.50;1.50;;;;;;;23.21;40.30;99663.69;4484736;32;33823;-63
2021/05/27 07:32:05;;;;;;;3.78;1.27;;;;;;;23.22;40.31;99659.06;4484928;32;33478;-63
2021/05/27 07:34:34;;;;;;;6.75;2.05;;;;;;;23.22;40.31;99654.47;4484378;32;31930;-63
2021/05/27 07:37:02;;;;;;;6.75;1.30;;;;;;;23.23;40.31;99661.59;4484693;32;33351;-63
2021/05/27 07:39:31;;;;;;;5.10;1.37;;;;;;;23.24;40.31;99656.97;4484720;32;33799;-63
2021/05/27 07:41:59;;;;;;;3.47;1.10;;;;;;;23.24;40.30;99655.09;4484942;32;34406;-62
2021/05/27 07:44:28;;;;;;;4.83;1.40;;;;;;;23.25;40.32;99658.63;4484229;32;33884;-63
2021/05/27 07:46:56;;;;;;;3.53;1.20;;;;;;;23.26;40.28;99652.13;4484809;32;33774;-63
2021/05/27 07:49:24;;;;;;;4.90;1.50;;;;;;;23.24;40.31;99646.09;4484649;32;33975;-63
2021/05/27 07:51:51;;;;;;;4.90;1.85;;;;;;;23.25;40.31;99648.56;4484796;32;34350;-62
2021/05/27 07:54:19;;;;;;;5.05;1.50;;;;;;;23.25;40.30;99656.75;4484606;32;33199;-62
2021/05/27 07:56:47;;;;;;;6.22;1.40;;;;;;;23.26;40.29;99652.94;4484393;32;33662;-63
2021/05/27 07:59:15;;;;;;;4.85;1.33;;;;;;;23.26;40.31;99643.97;4484960;32;33680;-63
2021/05/27 08:01:43;;;;;;;4.05;1.40;;;;;;;23.26;40.31;99644.78;4484410;32;33619;-62
2021/05/27 08:04:11;;;;;;;4.37;1.23;;;;;;;23.27;40.31;99645.59;4484319;32;34209;-64
2021/05/27 08:06:40;;;;;;;3.10;1.12;;;;;;;23.28;40.31;99652.75;4482942;32;33760;-62
2021/05/27 08:09:08;;;;;;;4.82;1.40;;;;;;;23.27;40.31;99649.19;4468723;32;33826;-63
2021/05/27 08:11:36;;;;;;;3.58;1.40;;;;;;;23.27;40.33;99651.06;4480407;32;33661;-62
2021/05/27 08:14:03;;;;;;;3.20;1.17;;;;;;;23.27;40.33;99643.75;4483193;32;33965;-63
2021/05/27 08:16:32;;;;;;;4.47;1.42;;;;;;;23.27;40.33;99649.19;4484681;32;33924;-64
2021/05/27 08:19:00;;;;;;;3.45;1.33;;;;;;;23.27;40.33;99643.75;4484146;32;33899;-62
2021/05/27 08:21:28;;;;;;;4.60;1.40;;;;;;;23.28;40.34;99647.28;4484447;32;34329;-62
2021/05/27 08:23:56;;;;;;;4.18;1.40;;;;;;;23.27;40.35;99641.03;4484521;32;33261;-64
2021/05/27 08:26:23;;;;;;;3.47;1.25;;;;;;;23.27;40.35;99643.75;4484298;32;34958;-61
2021/05/27 08:28:52;;;;;;;5.93;1.55;;;;;;;23.27;40.34;99651.06;4484058;32;33620;-63
2021/05/27 08:31:20;;;;;;;5.45;1.70;;;;;;;23.27;40.36;99648.34;4484459;32;34471;-62
2021/05/27 08:33:49;;;;;;;4.62;1.73;;;;;;;23.28;40.37;99653.56;4484101;32;33794;-63
2021/05/27 08:36:17;;;;;;;4.40;1.45;;;;;;;23.29;40.37;99654.41;4484715;32;33775;-63
2021/05/27 08:38:44;;;;;;;5.40;1.35;;;;;;;23.27;40.36;99657.34;4484384;32;33881;-60
2021/05/27 08:41:13;;;;;;;4.12;1.15;;;;;;;23.27;40.38;99659.22;4484563;32;33394;-64
2021/05/27 08:43:40;;;;;;;3.62;1.10;;;;;;;23.28;40.39;99655.47;4470434;32;33221;-64
2021/05/27 08:46:08;;;;;;;4.80;1.30;;;;;;;23.26;40.37;99661.12;4484504;32;34509;-63
2021/05/27 08:48:36;;;;;;;4.00;1.20;;;;;;;23.27;40.38;99660.09;4483168;32;33934;-63
2021/05/27 08:51:04;;;;;;;4.22;1.40;;;;;;;23.28;40.37;99655.47;4484326;32;33724;-63
2021/05/27 08:53:31;;;;;;;6.62;1.48;;;;;;;23.28;40.38;99663.63;4484255;32;34253;-64
2021/05/27 08:55:59;;;;;;;4.32;1.60;;;;;;;23.27;40.38;99657.34;4484155;31;33897;-64
2021/05/27 08:58:26;;;;;;;4.18;1.27;;;;;;;23.27;40.39;99653.78;4483995;32;33877;-63
2021/05/27 09:00:55;;;;;;;5.85;1.15;;;;;;;23.26;40.38;99652.94;4484303;32;34578;-62
2021/05/27 09:03:23;;;;;;;3.15;1.12;;;;;;;23.28;40.39;99655.47;4484258;32;34360;-62
2021/05/27 09:05:59;;;;;;;4.70;1.20;;;;;;;23.27;40.39;99661.94;4484238;32;34673;-63
2021/05/27 09:08:29;;;;;;;3.55;1.10;;;;;;;23.28;40.39;99656.28;4483791;32;34659;-63
2021/05/27 09:11:04;;;;;;;4.37;1.30;;;;;;;23.27;40.41;99651.06;4484305;32;34361;-63
2021/05/27 09:13:32;;;;;;;2.60;1.50;;;;;;;23.29;40.39;99654.41;4484164;32;34184;-63
2021/05/27 09:16:11;;;;;;;3.87;1.10;;;;;;;23.27;40.42;99651.06;4484127;32;33748;-63
2021/05/27 09:18:43;;;;;;;2.25;1.10;;;;;;;23.28;40.41;99656.28;4483938;32;34925;-63
2021/05/27 09:21:12;;;;;;;3.78;1.20;;;;;;;23.27;40.41;99656.50;4483681;32;34420;-64
2021/05/27 09:23:50;;;;;;;3.55;1.20;;;;;;;23.26;40.42;99646.69;4483885;32;33233;-63
2021/05/27 09:26:18;;;;;;;4.47;1.02;;;;;;;23.27;40.41;99651.06;4484012;32;34030;-63
2021/05/27 09:28:47;;;;;;;2.67;1.02;;;;;;;23.26;40.43;99644.78;4483891;32;33939;-63
2021/05/27 09:31:19;;;;;;;2.95;1.15;;;;;;;23.26;40.44;99643.97;4484033;32;33428;-62
2021/05/27 09:33:49;;;;;;;3.20;0.90;;;;;;;23.26;40.44;99641.22;4483414;32;33179;-64
2021/05/27 09:36:20;;;;;;;4.12;1.10;;;;;;;23.26;40.44;99641.22;4482439;32;34554;-63
2021/05/27 09:38:55;;;;;;;5.57;1.55;;;;;;;23.26;40.45;99638.50;4483532;32;34463;-64
2021/05/27 09:41:26;;;;;;;3.12;1.05;;;;;;;23.27;40.44;99642.87;4483702;32;33787;-63
2021/05/27 09:44:00;;;;;;;2.10;1.02;;;;;;;23.24;40.49;99633.31;4484161;32;34041;-62
2021/05/27 09:46:29;;;;;;;3.28;1.00;;;;;;;23.26;40.45;99639.34;4482552;32;35134;-61
2021/05/27 09:49:08;;;;;;;4.28;1.55;;;;;;;23.25;40.48;99637.69;4481758;32;33827;-61
2021/05/27 09:51:35;;;;;;;3.25;1.08;;;;;;;23.28;40.46;99636.41;4476209;32;33681;-62
2021/05/27 09:54:09;;;;;;;1.98;0.85;;;;;;;23.26;40.46;99641.22;4483722;32;33351;-61
2021/05/27 09:56:41;;;;;;;2.78;1.33;;;;;;;23.26;40.46;99641.22;4483854;32;34408;-61
2021/05/27 09:59:10;;;;;;;3.15;1.02;;;;;;;23.25;40.49;99640.41;4483709;32;34675;-61
2021/05/27 10:01:38;;;;;;;2.62;1.10;;;;;;;23.26;40.48;99641.22;4483818;32;33717;-62
2021/05/27 10:04:13;;;;;;;3.33;1.00;;;;;;;23.26;40.48;99635.78;4483408;32;33960;-61
2021/05/27 10:06:43;;;;;;;3.53;1.27;;;;;;;23.27;40.48;99637.44;4483889;32;33862;-62
2021/05/27 10:09:11;;;;;;;4.07;1.30;;;;;;;23.26;40.49;99642.06;4483558;32;35379;-61
2021/05/27 10:11:39;;;;;;;3.65;1.17;;;;;;;23.26;40.50;99638.50;4483217;32;33703;-61
2021/05/27 10:14:11;;;;;;;1.95;0.80;;;;;;;23.25;40.49;99637.69;4483778;32;34095;-62
2021/05/27 10:16:39;;;;;;;4.90;1.30;;;;;;;23.25;40.49;99637.69;4483302;32;34881;-61
2021/05/27 10:19:07;;;;;;;2.70;1.10;;;;;;;23.26;40.48;99636.63;4483413;32;35378;-62
2021/05/27 10:21:37;;;;;;;3.37;1.05;;;;;;;23.26;40.48;99633.91;4483323;32;33640;-62
2021/05/27 10:24:07;;;;;;;3.25;1.02;;;;;;;23.26;40.48;99635.78;4482050;32;34096;-62
2021/05/27 10:26:34;;;;;;;2.12;1.05;;;;;;;23.26;40.48;99631.16;4482115;32;34126;-62
2021/05/27 10:29:21;;;;;;;2.83;1.02;;;;;;;23.27;40.48;99632.00;4483292;32;34048;-62
2021/05/27 10:31:49;;;;;;;2.40;1.27;;;;;;;23.28;40.49;99630.97;4481939;32;34468;-62
2021/05/27 10:34:40;;;;;;;2.85;0.95;;;;;;;23.26;40.49;99631.16;4484854;32;33235;-61
2021/05/27 10:37:08;;;;;;;2.42;0.93;;;;;;;23.28;40.45;99625.53;4485257;32;33761;-61
2021/05/27 10:39:38;;;;;;;3.33;1.20;;;;;;;23.26;40.48;99628.44;4485434;32;34092;-61
2021/05/27 10:42:06;;;;;;;3.35;1.10;;;;;;;23.25;40.50;99626.78;4485048;32;33768;-62
2021/05/27 10:44:34;;;;;;;3.40;1.33;;;;;;;23.27;40.49;99623.84;4485235;32;33828;-61
2021/05/27 10:47:06;;;;;;;3.78;1.27;;;;;;;23.26;40.49;99623.00;4485084;32;34707;-61
2021/05/27 10:49:44;;;;;;;3.58;1.20;;;;;;;23.26;40.49;99622.19;4485315;32;33853;-62
2021/05/27 10:52:27;;;;;;;3.03;1.17;;;;;;;23.27;40.49;99621.97;4485216;32;33766;-62
2021/05/27 10:54:55;;;;;;;4.00;1.00;;;;;;;23.28;40.49;99620.06;4484895;31;33413;-62
2021/05/27 10:57:41;;;;;;;3.35;1.00;;;;;;;23.26;40.50;99622.19;4484971;32;33720;-62
2021/05/27 11:00:15;;;;;;;3.33;1.17;;;;;;;23.28;40.48;99612.72;4485074;32;33628;-62
2021/05/27 11:02:43;;;;;;;5.70;1.12;;;;;;;23.26;40.50;99616.72;4485308;32;34459;-62
2021/05/27 11:05:21;;;;;;;2.00;1.10;;;;;;;23.25;40.51;99610.47;4484892;32;33249;-61
2021/05/27 11:08:17;;;;;;;3.55;0.98;;;;;;;23.25;40.52;99613.19;4484879;32;33517;-62
2021/05/27 11:10:48;;;;;;;4.30;1.33;;;;;;;23.28;40.49;99609.19;4484957;32;33846;-62
2021/05/27 11:13:16;;;;;;;3.03;1.10;;;;;;;23.26;40.51;99611.28;4485118;32;33411;-62
2021/05/27 11:16:05;;;;;;;2.22;1.00;;;;;;;23.25;40.54;99609.63;4483576;32;33494;-61
2021/05/27 11:18:34;;;;;;;3.27;1.13;;;;;;;23.28;40.49;99609.19;4485048;32;33875;-61
2021/05/27 11:21:34;;;;;;;2.15;0.88;;;;;;;23.26;40.51;99614.84;4484747;32;35398;-62
2021/05/27 11:24:33;;;;;;;2.80;0.88;;;;;;;23.27;40.50;99616.53;4484676;32;33710;-61
2021/05/27 11:27:26;;;;;;;1.90;0.95;;;;;;;23.26;40.51;99612.13;4484777;32;34201;-62
2021/05/27 11:30:15;;;;;;;2.33;1.30;;;;;;;23.29;40.49;99605.41;4485131;32;34009;-62
2021/05/27 11:32:44;;;;;;;3.20;1.00;;;;;;;23.27;40.51;99602.91;4484690;32;33915;-61
2021/05/27 11:35:12;;;;;;;2.53;1.08;;;;;;;23.26;40.54;99603.13;4484650;32;34424;-62
2021/05/27 11:37:40;;;;;;;2.53;0.90;;;;;;;23.25;40.55;99606.91;4484775;32;34045;-61
2021/05/27 11:40:09;;;;;;;3.37;1.00;;;;;;;23.25;40.55;99605.03;4484915;32;34557;-62
2021/05/27 11:42:37;;;;;;;2.85;1.20;;;;;;;23.25;40.55;99610.47;4484599;32;33818;-61
2021/05/27 11:45:07;;;;;;;2.40;0.82;;;;;;;23.26;40.55;99597.69;4484354;32;34686;-62
2021/05/27 11:47:34;;;;;;;4.32;1.10;;;;;;;23.26;40.55;99600.41;4484603;32;33243;-62
2021/05/27 11:50:10;;;;;;;3.62;0.93;;;;;;;23.26;40.52;99603.94;4484738;32;34762;-61
2021/05/27 11:52:38;;;;;;;2.42;0.90;;;;;;;23.25;40.56;99599.56;4484630;32;33778;-62